Time;durP1;ratioP1;P1;durP2;ratioP2;P2;SDS_P1;SDS_P2;PMS_P1;PMS_P2;Temp;Humidity;BMP_temperature;BMP_pressure;BME280_temperature;BME280_humidity;BME280_pressure;Samples;Min_cycle;Max_cycle;Signal;HPM_P1;HPM_P2
2023/06/18 00:00:55;;;;;;;26.67;21.90;;;17.40;99.90;;;;;;5064650;28;20502;-59
2023/06/18 00:03:20;;;;;;;23.73;20.88;;;17.30;99.90;;;;;;5051331;28;20040;-59
2023/06/18 00:05:46;;;;;;;27.20;20.35;;;17.40;99.90;;;;;;5051271;28;20037;-59
2023/06/18 00:08:12;;;;;;;23.08;20.23;;;17.40;99.90;;;;;;5051905;28;20037;-59
2023/06/18 00:10:37;;;;;;;26.75;20.88;;;17.30;99.90;;;;;;5051329;28;20037;-59
2023/06/18 00:13:04;;;;;;;25.17;20.67;;;17.40;99.90;;;;;;5051252;28;20506;-59
2023/06/18 00:15:30;;;;;;;23.00;20.55;;;17.40;99.90;;;;;;5051172;28;20044;-59
2023/06/18 00:17:56;;;;;;;26.77;21.40;;;17.30;99.90;;;;;;5033541;28;20037;-60
2023/06/18 00:20:22;;;;;;;24.67;21.20;;;17.30;99.90;;;;;;5051198;28;20063;-60
2023/06/18 00:22:48;;;;;;;23.15;19.67;;;17.30;99.90;;;;;;5033291;28;20495;-59
2023/06/18 00:25:15;;;;;;;21.95;19.52;;;17.40;99.90;;;;;;5051186;28;20047;-59
2023/06/18 00:27:41;;;;;;;24.55;21.05;;;17.40;99.90;;;;;;5051349;28;20040;-60
2023/06/18 00:30:07;;;;;;;25.42;21.38;;;17.40;99.90;;;;;;5051533;28;20037;-59
2023/06/18 00:32:33;;;;;;;27.23;24.10;;;17.40;99.90;;;;;;5053161;28;20043;-60
2023/06/18 00:35:00;;;;;;;26.92;21.80;;;17.30;99.90;;;;;;5054869;28;20098;-59
2023/06/18 00:37:27;;;;;;;24.58;20.92;;;17.20;99.90;;;;;;5055169;28;20116;-60
2023/06/18 00:39:54;;;;;;;27.02;20.73;;;17.20;99.90;;;;;;5054989;28;20048;-59
2023/06/18 00:42:20;;;;;;;24.55;20.88;;;17.20;99.90;;;;;;5054898;28;20048;-59
2023/06/18 00:44:46;;;;;;;24.88;21.25;;;17.20;99.90;;;;;;5038567;28;20083;-60
2023/06/18 00:47:13;;;;;;;22.98;20.30;;;17.20;99.90;;;;;;5074750;28;20036;-59
2023/06/18 00:49:43;;;;;;;27.67;22.20;;;17.20;99.90;;;;;;5074784;28;20390;-59
2023/06/18 00:52:12;;;;;;;27.50;20.92;;;17.10;99.90;;;;;;5074778;28;20051;-59
2023/06/18 00:54:40;;;;;;;27.33;21.92;;;17.10;99.90;;;;;;5074625;28;20044;-59
2023/06/18 00:57:08;;;;;;;26.60;21.30;;;17.00;99.90;;;;;;5074722;28;20047;-59
2023/06/18 00:59:37;;;;;;;23.83;20.83;;;16.90;99.90;;;;;;5056757;28;20053;-59
2023/06/18 01:02:03;;;;;;;28.90;22.17;;;16.90;99.90;;;;;;5074463;28;20043;-59
2023/06/18 01:04:35;;;;;;;26.38;22.90;;;16.90;99.90;;;;;;5074371;28;20040;-59
2023/06/18 01:07:02;;;;;;;26.83;21.90;;;16.90;99.90;;;;;;5074921;28;20075;-59
2023/06/18 01:09:29;;;;;;;28.98;23.70;;;16.90;99.90;;;;;;5074444;28;20040;-59
2023/06/18 01:11:55;;;;;;;27.45;23.45;;;16.80;99.90;;;;;;5074367;28;20043;-59
2023/06/18 01:14:26;;;;;;;33.63;24.33;;;16.80;99.90;;;;;;5074366;28;20060;-59
2023/06/18 01:17:03;;;;;;;26.90;20.77;;;16.80;99.90;;;;;;5074346;28;20043;-60
2023/06/18 01:19:40;;;;;;;26.92;22.92;;;16.80;99.90;;;;;;5074432;28;20441;-60
2023/06/18 01:22:26;;;;;;;24.13;20.52;;;16.70;99.90;;;;;;5056434;28;20514;-60
2023/06/18 01:24:57;;;;;;;28.48;22.30;;;16.70;99.90;;;;;;5074063;28;20052;-59
2023/06/18 01:27:25;;;;;;;25.77;21.35;;;16.70;99.90;;;;;;5074128;28;20439;-59
2023/06/18 01:29:51;;;;;;;24.53;19.90;;;16.70;99.90;;;;;;5074371;28;20058;-58
2023/06/18 01:32:17;;;;;;;26.30;22.42;;;16.80;99.90;;;;;;5073924;28;20107;-59
2023/06/18 01:34:43;;;;;;;27.90;21.65;;;16.70;99.90;;;;;;5072708;28;20036;-59
2023/06/18 01:37:14;;;;;;;27.35;21.17;;;16.80;99.90;;;;;;5036145;28;20036;-59
2023/06/18 01:39:59;;;;;;;26.63;21.98;;;16.80;99.90;;;;;;5053921;28;20410;-59
2023/06/18 01:42:29;;;;;;;28.10;23.50;;;16.70;99.90;;;;;;5053758;28;20045;-59
2023/06/18 01:45:18;;;;;;;30.00;23.10;;;16.80;99.90;;;;;;5052573;28;20041;-59
2023/06/18 01:47:45;;;;;;;25.98;22.02;;;16.90;99.90;;;;;;5053599;28;20369;-59
2023/06/18 01:50:13;;;;;;;27.88;22.23;;;16.80;99.90;;;;;;5053745;28;20036;-59
2023/06/18 01:52:42;;;;;;;35.17;23.52;;;16.70;99.90;;;;;;5053645;28;20037;-59
2023/06/18 01:55:10;;;;;;;27.83;22.92;;;16.70;99.90;;;;;;5035650;28;20076;-59
2023/06/18 01:57:36;;;;;;;24.70;21.45;;;16.70;99.90;;;;;;5053699;28;20462;-59
2023/06/18 02:00:04;;;;;;;26.35;21.65;;;16.80;99.90;;;;;;5053484;28;20036;-59
2023/06/18 02:02:30;;;;;;;28.90;24.10;;;16.80;99.90;;;;;;5053367;28;20056;-59
2023/06/18 02:04:56;;;;;;;24.65;20.65;;;16.80;99.90;;;;;;5053283;28;20044;-59
2023/06/18 02:07:22;;;;;;;28.40;21.95;;;16.70;99.90;;;;;;5052213;28;20033;-59
2023/06/18 02:09:48;;;;;;;27.40;22.23;;;16.70;99.90;;;;;;5053114;28;20530;-58
2023/06/18 02:12:13;;;;;;;28.85;23.60;;;16.60;99.90;;;;;;5053014;28;20039;-59
2023/06/18 02:14:39;;;;;;;25.85;21.52;;;16.60;99.90;;;;;;5053150;28;20475;-59
2023/06/18 02:17:05;;;;;;;28.92;22.17;;;16.60;99.90;;;;;;5053086;28;20491;-59
2023/06/18 02:19:31;;;;;;;29.48;22.30;;;16.50;99.90;;;;;;5053330;28;20029;-58
2023/06/18 02:21:57;;;;;;;29.95;23.95;;;16.50;99.90;;;;;;5053272;28;20033;-58
2023/06/18 02:24:23;;;;;;;27.98;21.33;;;16.40;99.90;;;;;;5052817;28;20499;-59
2023/06/18 02:26:49;;;;;;;28.70;23.25;;;16.30;99.90;;;;;;5053161;28;20049;-59
2023/06/18 02:29:14;;;;;;;29.83;22.63;;;16.50;99.90;;;;;;5053082;28;20037;-59
2023/06/18 02:31:40;;;;;;;29.48;23.63;;;16.40;99.90;;;;;;5035224;28;20048;-59
2023/06/18 02:34:05;;;;;;;25.70;21.25;;;16.50;99.90;;;;;;5034956;28;20041;-59
2023/06/18 02:36:32;;;;;;;27.60;22.35;;;16.60;99.90;;;;;;5052710;28;20056;-59
2023/06/18 02:38:58;;;;;;;27.60;22.27;;;16.60;99.90;;;;;;5052757;28;20048;-58
2023/06/18 02:41:23;;;;;;;29.50;23.60;;;16.50;99.90;;;;;;5055175;28;20091;-59
2023/06/18 02:43:49;;;;;;;31.85;23.63;;;16.50;99.90;;;;;;5072625;28;20403;-59
2023/06/18 02:46:21;;;;;;;28.20;23.20;;;16.40;99.90;;;;;;5054468;28;20453;-58
2023/06/18 02:48:46;;;;;;;31.27;24.23;;;16.40;99.90;;;;;;5072402;28;20140;-59
2023/06/18 02:51:12;;;;;;;25.20;21.00;;;16.40;99.90;;;;;;5072448;28;20107;-59
2023/06/18 02:53:38;;;;;;;27.77;22.05;;;16.50;99.90;;;;;;5054401;28;20039;-59
2023/06/18 02:56:04;;;;;;;30.13;22.23;;;16.50;99.90;;;;;;5054355;28;20032;-59
2023/06/18 02:58:29;;;;;;;28.42;22.58;;;16.50;99.90;;;;;;5053911;28;20045;-59
2023/06/18 03:00:59;;;;;;;32.00;23.95;;;16.40;99.90;;;;;;5072405;28;20078;-58
2023/06/18 03:03:26;;;;;;;27.75;22.00;;;16.50;99.90;;;;;;5072179;28;20046;-58
2023/06/18 03:05:52;;;;;;;30.70;22.88;;;16.40;99.90;;;;;;5087839;28;20040;-59
2023/06/18 03:08:21;;;;;;;25.40;21.55;;;16.40;99.90;;;;;;5072178;28;20115;-59
2023/06/18 03:10:47;;;;;;;29.60;23.05;;;16.40;99.90;;;;;;5072011;28;20075;-58
2023/06/18 03:13:13;;;;;;;28.05;23.23;;;16.40;99.90;;;;;;5071615;28;20076;-59
2023/06/18 03:15:39;;;;;;;27.10;21.77;;;16.30;99.90;;;;;;5052375;28;20040;-59
2023/06/18 03:18:05;;;;;;;30.70;24.63;;;16.20;99.90;;;;;;5052255;28;20510;-59
2023/06/18 03:20:31;;;;;;;31.60;25.88;;;16.10;99.90;;;;;;5034087;28;20037;-59
2023/06/18 03:22:57;;;;;;;32.08;25.42;;;16.00;99.90;;;;;;5034052;28;20534;-59
2023/06/18 03:25:23;;;;;;;31.45;25.02;;;16.00;99.90;;;;;;5051708;28;20123;-59
2023/06/18 03:27:50;;;;;;;29.02;23.02;;;16.00;99.90;;;;;;5051851;28;20068;-59
2023/06/18 03:30:17;;;;;;;31.58;24.83;;;16.00;99.90;;;;;;5051740;28;20492;-59
2023/06/18 03:32:43;;;;;;;28.13;22.63;;;16.00;99.90;;;;;;5051783;28;20467;-58
2023/06/18 03:35:09;;;;;;;30.85;24.08;;;16.00;99.90;;;;;;5051858;28;20033;-59
2023/06/18 03:37:38;;;;;;;30.67;24.00;;;15.90;99.90;;;;;;5033318;28;20053;-59
2023/06/18 03:40:04;;;;;;;26.23;21.38;;;16.00;99.90;;;;;;5051685;28;20492;-59
2023/06/18 03:42:30;;;;;;;25.75;21.80;;;16.00;99.90;;;;;;5033913;28;20087;-59
2023/06/18 03:44:56;;;;;;;24.52;20.98;;;16.00;99.90;;;;;;5051716;28;20084;-58
2023/06/18 03:47:21;;;;;;;26.05;20.65;;;16.00;99.90;;;;;;5033596;28;20079;-58
2023/06/18 03:49:47;;;;;;;30.30;22.60;;;16.00;99.90;;;;;;5051602;28;20036;-59
2023/06/18 03:52:13;;;;;;;24.60;20.52;;;15.90;99.90;;;;;;5051741;28;20033;-59
2023/06/18 03:54:38;;;;;;;24.63;21.30;;;15.90;99.90;;;;;;5033930;28;20041;-59
2023/06/18 03:57:05;;;;;;;25.48;20.88;;;16.00;99.90;;;;;;5051544;28;20106;-59
2023/06/18 03:59:31;;;;;;;26.83;20.92;;;16.00;99.90;;;;;;5051520;28;20033;-59
2023/06/18 04:01:57;;;;;;;24.70;20.80;;;15.90;99.90;;;;;;5051720;28;20040;-59
2023/06/18 04:04:23;;;;;;;29.55;22.60;;;15.90;99.90;;;;;;5051336;28;20484;-59
2023/06/18 04:06:48;;;;;;;28.55;20.73;;;15.90;99.90;;;;;;5052338;28;20044;-59
2023/06/18 04:09:14;;;;;;;25.75;20.30;;;15.90;99.90;;;;;;5055562;28;20041;-59
2023/06/18 04:11:42;;;;;;;28.50;22.35;;;15.80;99.90;;;;;;5055588;28;20041;-59
2023/06/18 04:14:08;;;;;;;24.67;21.20;;;15.90;99.90;;;;;;5037421;28;20053;-59
2023/06/18 04:16:34;;;;;;;24.95;21.40;;;15.80;99.90;;;;;;5037579;28;20120;-59
2023/06/18 04:19:00;;;;;;;27.60;22.17;;;16.00;99.90;;;;;;5037643;28;20116;-59
2023/06/18 04:21:25;;;;;;;26.58;22.30;;;16.00;99.90;;;;;;5055375;28;20090;-59
2023/06/18 04:23:53;;;;;;;26.92;21.85;;;16.10;99.90;;;;;;5055059;28;20403;-59
2023/06/18 04:26:19;;;;;;;28.50;22.93;;;16.00;99.90;;;;;;5037300;28;20052;-59
2023/06/18 04:28:45;;;;;;;27.65;21.52;;;16.10;99.90;;;;;;5055080;28;20037;-59
2023/06/18 04:31:11;;;;;;;29.65;21.50;;;16.00;99.90;;;;;;5055263;28;20075;-59
2023/06/18 04:33:36;;;;;;;27.33;22.02;;;16.10;99.90;;;;;;5037062;28;20077;-58
2023/06/18 04:36:02;;;;;;;24.38;20.33;;;16.20;99.90;;;;;;5055233;28;20033;-59
2023/06/18 04:38:28;;;;;;;26.27;21.63;;;16.30;99.90;;;;;;5074045;28;20111;-59
2023/06/18 04:40:53;;;;;;;27.85;21.52;;;16.40;99.90;;;;;;5056986;28;20467;-59
2023/06/18 04:43:19;;;;;;;26.77;20.80;;;16.30;99.90;;;;;;5074973;28;20169;-59
2023/06/18 04:45:48;;;;;;;24.95;21.55;;;16.40;99.90;;;;;;5075219;28;20053;-59
2023/06/18 04:48:14;;;;;;;22.73;19.77;;;16.60;99.90;;;;;;5074708;28;20036;-59
2023/06/18 04:50:41;;;;;;;22.83;19.83;;;16.60;99.90;;;;;;5057198;28;20406;-59
2023/06/18 04:53:06;;;;;;;20.40;17.92;;;16.70;99.90;;;;;;5075132;28;20097;-59
2023/06/18 04:55:32;;;;;;;25.85;20.73;;;16.80;99.90;;;;;;5090425;28;20569;-59
2023/06/18 04:57:58;;;;;;;24.17;20.48;;;16.70;99.90;;;;;;5074588;28;20167;-59
2023/06/18 05:00:23;;;;;;;20.75;17.77;;;16.80;99.90;;;;;;5074571;28;20123;-59
2023/06/18 05:02:49;;;;;;;23.75;18.15;;;16.90;99.90;;;;;;5074540;28;20040;-59
2023/06/18 05:05:15;;;;;;;23.33;19.88;;;16.90;99.90;;;;;;5074524;28;20390;-59
2023/06/18 05:07:42;;;;;;;25.70;19.30;;;17.00;99.90;;;;;;5056521;28;20482;-59
2023/06/18 05:10:08;;;;;;;21.95;18.75;;;17.20;99.90;;;;;;5074589;28;20044;-58
2023/06/18 05:12:34;;;;;;;20.80;18.05;;;17.20;99.90;;;;;;5074467;28;20084;-59
2023/06/18 05:15:00;;;;;;;23.85;19.15;;;17.20;99.90;;;;;;5059340;28;20103;-59
2023/06/18 05:17:25;;;;;;;21.02;18.70;;;17.30;99.90;;;;;;5054089;28;20426;-59
2023/06/18 05:19:51;;;;;;;21.05;17.50;;;17.40;99.90;;;;;;5054444;28;20041;-59
2023/06/18 05:22:17;;;;;;;20.98;17.60;;;17.50;99.90;;;;;;5054138;28;20132;-59
2023/06/18 05:24:42;;;;;;;19.23;17.20;;;17.60;99.90;;;;;;5036040;28;20082;-59
2023/06/18 05:27:08;;;;;;;20.13;17.45;;;17.70;99.90;;;;;;5054247;28;20495;-59
2023/06/18 05:29:34;;;;;;;23.45;17.95;;;17.70;99.90;;;;;;5054258;28;20065;-60
2023/06/18 05:32:00;;;;;;;22.38;17.08;;;17.70;99.90;;;;;;5054061;28;20098;-59
2023/06/18 05:34:25;;;;;;;20.00;15.35;;;17.90;99.90;;;;;;5054136;28;20029;-59
2023/06/18 05:36:51;;;;;;;18.45;16.38;;;17.90;99.90;;;;;;5054262;28;20119;-59
2023/06/18 05:39:16;;;;;;;19.75;16.15;;;18.00;99.90;;;;;;5053716;28;20040;-59
2023/06/18 05:41:42;;;;;;;19.83;16.48;;;18.10;99.90;;;;;;5036094;28;20055;-59
2023/06/18 05:44:08;;;;;;;19.38;17.20;;;18.20;99.90;;;;;;5053722;28;20044;-59
2023/06/18 05:46:33;;;;;;;17.92;16.02;;;18.40;99.90;;;;;;5053917;28;20041;-59
2023/06/18 05:48:59;;;;;;;18.85;16.00;;;18.60;99.90;;;;;;5053621;28;20111;-59
2023/06/18 05:51:25;;;;;;;16.45;14.80;;;18.80;99.90;;;;;;5053595;28;20132;-60
2023/06/18 05:53:50;;;;;;;17.25;15.30;;;18.80;99.90;;;;;;5053697;28;20029;-59
2023/06/18 05:56:16;;;;;;;18.20;16.02;;;18.80;99.90;;;;;;5053551;28;20039;-59
2023/06/18 05:58:42;;;;;;;17.00;15.15;;;18.90;99.90;;;;;;5053622;28;20114;-59
2023/06/18 06:01:07;;;;;;;17.42;14.38;;;18.80;99.90;;;;;;5035509;28;20043;-59
2023/06/18 06:03:35;;;;;;;17.67;14.75;;;19.10;99.90;;;;;;5053156;28;20132;-59
2023/06/18 06:06:02;;;;;;;15.55;13.90;;;19.30;99.90;;;;;;5035458;28;20041;-60
2023/06/18 06:08:28;;;;;;;17.17;14.57;;;19.50;99.90;;;;;;5068857;28;20028;-59
2023/06/18 06:10:53;;;;;;;15.18;13.57;;;19.60;99.90;;;;;;5053443;28;20087;-60
2023/06/18 06:13:19;;;;;;;15.77;13.90;;;19.80;99.90;;;;;;5052781;28;20046;-59
2023/06/18 06:15:45;;;;;;;19.52;12.85;;;19.90;99.90;;;;;;5053266;28;20037;-60
2023/06/18 06:18:11;;;;;;;16.50;14.63;;;20.00;99.90;;;;;;5053119;28;20067;-59
2023/06/18 06:20:36;;;;;;;16.48;14.60;;;20.10;99.90;;;;;;5053203;28;20493;-59
2023/06/18 06:23:02;;;;;;;15.25;13.52;;;20.10;99.90;;;;;;5053673;28;20613;-59
2023/06/18 06:25:28;;;;;;;14.70;12.95;;;20.20;99.90;;;;;;5052942;28;20494;-60
2023/06/18 06:27:54;;;;;;;15.85;13.93;;;20.40;99.90;;;;;;5053085;28;20399;-60
2023/06/18 06:30:20;;;;;;;16.92;13.80;;;20.50;99.90;;;;;;5052213;28;20033;-59
2023/06/18 06:32:45;;;;;;;19.55;13.60;;;20.60;99.90;;;;;;5068500;28;20495;-60
2023/06/18 06:35:11;;;;;;;13.65;12.35;;;20.90;99.90;;;;;;5035049;28;20041;-59
2023/06/18 06:37:37;;;;;;;15.52;13.27;;;21.00;99.90;;;;;;5069711;28;20040;-60
2023/06/18 06:40:03;;;;;;;16.45;13.40;;;21.10;99.90;;;;;;5072823;28;20068;-59
2023/06/18 06:42:29;;;;;;;15.63;13.10;;;21.20;99.90;;;;;;5054601;28;20047;-60
2023/06/18 06:44:55;;;;;;;14.27;12.63;;;21.40;99.90;;;;;;5072452;28;20045;-60
2023/06/18 06:47:21;;;;;;;15.38;13.77;;;21.60;99.90;;;;;;5072495;28;20093;-59
2023/06/18 06:49:46;;;;;;;14.90;13.32;;;21.60;99.90;;;;;;5072370;28;20040;-60
2023/06/18 06:52:12;;;;;;;14.90;12.55;;;22.00;99.90;;;;;;5072326;28;20058;-60
2023/06/18 06:54:38;;;;;;;17.73;13.05;;;22.00;99.90;;;;;;5072413;28;20491;-60
2023/06/18 06:57:04;;;;;;;14.60;12.07;;;22.20;99.90;;;;;;5072505;28;20036;-60
2023/06/18 06:59:30;;;;;;;13.65;12.25;;;22.50;99.90;;;;;;5054354;28;20048;-60
2023/06/18 07:01:56;;;;;;;14.45;12.85;;;22.60;99.90;;;;;;5072255;28;20494;-60
2023/06/18 07:04:22;;;;;;;13.43;12.10;;;22.60;99.90;;;;;;5054304;28;20048;-60
2023/06/18 07:06:49;;;;;;;15.02;12.57;;;22.90;99.90;;;;;;5072346;28;20040;-60
2023/06/18 07:09:14;;;;;;;13.48;11.63;;;22.90;99.90;;;;;;5072590;28;20096;-60
2023/06/18 07:11:40;;;;;;;14.13;11.10;;;23.10;99.90;;;;;;5087962;28;20458;-60
2023/06/18 07:14:06;;;;;;;13.27;11.65;;;23.20;99.90;;;;;;5064426;28;20126;-60
2023/06/18 07:16:32;;;;;;;14.32;11.63;;;23.40;99.90;;;;;;5052047;28;20040;-60
2023/06/18 07:18:58;;;;;;;12.75;11.35;;;23.70;99.90;;;;;;5051800;28;20033;-60
2023/06/18 07:21:24;;;;;;;14.40;12.90;;;24.00;99.90;;;;;;5052041;28;20044;-60
2023/06/18 07:23:49;;;;;;;13.35;11.15;;;23.70;99.90;;;;;;5066501;28;20484;-60
2023/06/18 07:26:15;;;;;;;12.23;11.00;;;23.60;99.90;;;;;;5052067;28;20415;-60
2023/06/18 07:28:41;;;;;;;11.77;10.57;;;23.80;99.90;;;;;;5051791;28;20043;-60
2023/06/18 07:31:06;;;;;;;13.13;11.70;;;24.00;99.90;;;;;;5051796;28;20039;-60
2023/06/18 07:33:32;;;;;;;11.77;10.55;;;24.40;99.90;;;;;;5049682;28;20147;-60
2023/06/18 07:35:57;;;;;;;10.45;9.38;;;24.80;99.90;;;;;;5051917;28;20449;-61
2023/06/18 07:38:23;;;;;;;11.50;10.25;;;25.10;99.90;;;;;;5051957;28;20399;-60
2023/06/18 07:40:50;;;;;;;11.38;10.15;;;25.00;99.90;;;;;;5051452;28;20033;-60
2023/06/18 07:43:15;;;;;;;10.63;9.43;;;25.30;99.90;;;;;;5051739;28;20119;-61
2023/06/18 07:45:41;;;;;;;12.15;10.70;;;26.00;99.90;;;;;;5051496;28;20440;-61
2023/06/18 07:48:10;;;;;;;11.50;10.40;;;26.10;99.90;;;;;;5051883;28;20495;-61
2023/06/18 07:50:36;;;;;;;11.82;10.60;;;26.20;99.90;;;;;;5051528;28;20041;-60
2023/06/18 07:53:02;;;;;;;11.25;9.27;;;26.50;99.90;;;;;;5051373;28;20116;-60
2023/06/18 07:55:28;;;;;;;12.73;11.00;;;26.00;99.90;;;;;;5051534;28;20075;-61
2023/06/18 07:57:53;;;;;;;12.60;10.15;;;25.80;99.90;;;;;;5051906;28;20086;-61
2023/06/18 08:00:19;;;;;;;10.90;9.80;;;26.00;99.90;;;;;;5033231;28;20119;-60
2023/06/18 08:02:45;;;;;;;11.60;9.75;;;26.20;99.90;;;;;;5051264;28;20407;-61
2023/06/18 08:05:11;;;;;;;11.75;9.98;;;26.30;99.90;;;;;;5033674;28;20483;-60
2023/06/18 08:07:37;;;;;;;10.20;8.75;;;26.50;99.90;;;;;;5051377;28;20044;-60
2023/06/18 08:10:03;;;;;;;12.45;9.25;;;26.90;99.90;;;;;;5065445;28;20037;-61
2023/06/18 08:12:29;;;;;;;10.88;9.55;;;27.10;99.90;;;;;;5069299;28;20078;-61
2023/06/18 08:14:54;;;;;;;11.73;9.32;;;27.50;99.90;;;;;;5057169;28;20053;-61
2023/06/18 08:17:20;;;;;;;9.63;8.63;;;27.80;99.90;;;;;;5051258;28;20116;-60
2023/06/18 08:19:47;;;;;;;8.80;7.90;;;28.30;99.90;;;;;;5051622;28;20048;-61
2023/06/18 08:22:15;;;;;;;10.77;8.60;;;28.90;99.90;;;;;;5023824;28;20051;-61
2023/06/18 08:24:41;;;;;;;8.82;8.02;;;29.00;99.90;;;;;;5071188;28;20271;-60
2023/06/18 08:27:07;;;;;;;11.15;8.30;;;29.50;99.90;;;;;;5057086;28;20076;-61
2023/06/18 08:29:33;;;;;;;11.20;8.15;;;29.80;99.90;;;;;;5071141;28;20478;-61
2023/06/18 08:32:04;;;;;;;10.80;7.93;;;29.70;99.90;;;;;;5070897;28;20036;-61
2023/06/18 08:34:34;;;;;;;11.07;8.30;;;29.60;99.90;;;;;;5071265;28;20029;-61
2023/06/18 08:37:00;;;;;;;9.07;7.35;;;29.40;99.90;;;;;;5070893;28;20494;-61
2023/06/18 08:39:26;;;;;;;8.65;7.63;;;30.00;99.90;;;;;;5071143;28;20033;-61
2023/06/18 08:41:54;;;;;;;10.65;8.80;;;30.40;99.90;;;;;;5070896;28;20510;-61
2023/06/18 08:44:23;;;;;;;10.95;7.45;;;30.10;99.90;;;;;;5071020;28;20041;-61
2023/06/18 08:46:49;;;;;;;12.88;8.45;;;30.60;99.90;;;;;;5070689;28;20053;-61
2023/06/18 08:49:16;;;;;;;8.55;7.70;;;30.60;99.90;;;;;;5071103;28;20101;-61
2023/06/18 08:51:45;;;;;;;8.50;7.60;;;30.70;99.90;;;;;;5070959;28;20075;-61
2023/06/18 08:54:15;;;;;;;9.50;8.55;;;30.90;99.90;;;;;;5074057;28;20544;-61
2023/06/18 08:56:49;;;;;;;8.52;7.53;;;30.60;99.90;;;;;;5074545;28;20047;-61
2023/06/18 08:59:18;;;;;;;9.65;7.68;;;30.30;99.70;;;;;;5074788;28;20071;-61
2023/06/18 09:01:46;;;;;;;12.00;9.05;;;31.10;99.90;;;;;;5074606;28;20396;-61
2023/06/18 09:04:12;;;;;;;;;;;31.00;99.50;;;;;;5075157;28;20505;-61
2023/06/18 09:06:39;;;;;;;9.55;8.10;;;31.20;99.60;;;;;;5074549;28;19920;-61
2023/06/18 09:09:05;;;;;;;8.52;6.93;;;31.20;99.10;;;;;;5074254;28;20040;-61
2023/06/18 09:11:33;;;;;;;9.13;6.50;;;31.40;99.40;;;;;;5056555;28;20119;-61
2023/06/18 09:13:59;;;;;;;9.85;6.78;;;31.60;99.20;;;;;;5067725;28;20045;-61
2023/06/18 09:16:25;;;;;;;8.32;6.55;;;31.80;99.10;;;;;;5054460;28;20044;-61
2023/06/18 09:18:51;;;;;;;9.60;6.95;;;32.00;98.10;;;;;;5054840;28;20033;-61
2023/06/18 09:21:39;;;;;;;9.88;6.82;;;32.30;97.50;;;;;;5054687;28;20439;-61
2023/06/18 09:24:09;;;;;;;7.18;6.03;;;32.60;97.60;;;;;;5053994;28;20044;-62
2023/06/18 09:26:35;;;;;;;6.65;5.13;;;32.60;96.50;;;;;;5054335;28;20056;-62
2023/06/18 09:29:10;;;;;;;7.38;6.20;;;32.90;96.30;;;;;;5052943;28;20033;-62
2023/06/18 09:31:44;;;;;;;8.27;6.13;;;32.60;95.00;;;;;;5050267;28;20448;-61
2023/06/18 09:34:20;;;;;;;6.70;5.68;;;32.80;95.60;;;;;;5069754;28;20518;-62
2023/06/18 09:36:47;;;;;;;7.47;5.82;;;32.70;94.60;;;;;;5053739;28;20052;-61
2023/06/18 09:39:20;;;;;;;6.40;5.70;;;32.80;95.50;;;;;;5054109;28;20033;-61
2023/06/18 09:41:47;;;;;;;5.85;5.10;;;32.50;95.10;;;;;;5053726;28;20451;-62
2023/06/18 09:44:14;;;;;;;7.43;5.00;;;32.50;94.80;;;;;;5053633;28;20108;-61
2023/06/18 09:46:47;;;;;;;8.57;5.65;;;32.80;94.20;;;;;;5054109;28;20053;-61
2023/06/18 09:49:15;;;;;;;6.55;5.22;;;32.70;93.80;;;;;;5019929;28;20036;-62
2023/06/18 09:51:41;;;;;;;7.03;6.18;;;32.80;94.80;;;;;;5054011;28;20494;-61
2023/06/18 09:54:08;;;;;;;6.30;4.85;;;33.00;95.00;;;;;;5052341;28;20072;-61
2023/06/18 09:56:34;;;;;;;8.05;5.30;;;33.30;94.70;;;;;;5054122;28;20159;-61
2023/06/18 09:59:01;;;;;;;8.13;5.25;;;33.60;94.30;;;;;;5054288;28;21312;-62
2023/06/18 10:01:29;;;;;;;6.32;5.68;;;33.80;94.00;;;;;;5050052;28;20474;-62
2023/06/18 10:03:55;;;;;;;;;;;34.00;94.10;;;;;;5035897;28;20040;-62
2023/06/18 10:06:22;;;;;;;6.15;5.55;;;33.80;93.60;;;;;;5059208;28;19959;-61
2023/06/18 10:08:53;;;;;;;6.90;5.75;;;33.50;93.90;;;;;;5036343;28;20108;-61
2023/06/18 10:11:20;;;;;;;6.32;5.57;;;33.70;94.40;;;;;;5053556;28;20440;-62
2023/06/18 10:13:52;;;;;;;8.82;6.18;;;33.80;94.40;;;;;;5053027;28;20399;-62
2023/06/18 10:16:20;;;;;;;7.95;6.38;;;34.00;94.20;;;;;;5053092;28;20041;-62
2023/06/18 10:19:02;;;;;;;6.05;5.45;;;34.00;93.40;;;;;;5053410;28;20429;-62
2023/06/18 10:21:31;;;;;;;5.38;4.88;;;34.10;92.00;;;;;;5035160;28;20041;-62
2023/06/18 10:24:17;;;;;;;7.85;5.93;;;34.10;92.50;;;;;;5052254;28;20125;-62
2023/06/18 10:26:43;;;;;;;9.27;5.97;;;34.00;90.90;;;;;;5051981;28;20049;-62
2023/06/18 10:29:11;;;;;;;6.97;6.28;;;34.30;92.10;;;;;;5053038;28;20037;-62
2023/06/18 10:31:37;;;;;;;8.75;5.82;;;34.40;92.20;;;;;;5038258;28;20036;-65
2023/06/18 10:34:04;;;;;;;8.85;6.20;;;34.40;92.20;;;;;;5020203;28;20037;-65
2023/06/18 10:36:29;;;;;;;7.15;6.00;;;34.30;92.20;;;;;;5048634;28;20120;-62
2023/06/18 10:38:57;;;;;;;6.60;5.70;;;34.30;92.40;;;;;;5052904;28;20131;-62
2023/06/18 10:41:24;;;;;;;7.78;5.88;;;34.20;92.00;;;;;;5031054;28;20054;-62
2023/06/18 10:43:51;;;;;;;6.70;5.70;;;34.00;92.30;;;;;;5053282;28;20106;-64
2023/06/18 10:46:18;;;;;;;5.80;5.30;;;34.10;92.40;;;;;;5052115;28;20049;-66
2023/06/18 10:49:19;;;;;;;6.03;5.30;;;34.40;92.50;;;;;;5031776;28;20276;-65
2023/06/18 10:51:57;;;;;;;7.90;6.10;;;34.40;91.10;;;;;;5046298;28;20058;-66
2023/06/18 10:54:29;;;;;;;6.57;5.80;;;34.70;91.70;;;;;;5047792;28;20051;-64
2023/06/18 10:56:56;;;;;;;6.03;5.47;;;34.50;91.30;;;;;;5053471;28;20178;-65
2023/06/18 10:59:49;;;;;;;10.05;5.72;;;34.50;91.40;;;;;;5052287;28;20041;-66
2023/06/18 11:02:15;;;;;;;8.02;5.90;;;34.60;91.40;;;;;;5051104;28;20044;-65
2023/06/18 11:04:41;;;;;;;7.15;5.63;;;34.60;91.30;;;;;;5046706;28;20040;-64
2023/06/18 11:07:23;;;;;;;12.30;5.70;;;34.30;91.30;;;;;;5053558;28;20041;-66
2023/06/18 11:09:58;;;;;;;6.78;5.50;;;34.40;91.10;;;;;;5051978;28;20491;-66
2023/06/18 11:12:33;;;;;;;6.38;5.75;;;34.30;91.00;;;;;;5052157;28;20064;-66
2023/06/18 11:15:15;;;;;;;6.20;5.60;;;33.90;91.00;;;;;;5053210;28;20383;-65
2023/06/18 11:17:49;;;;;;;6.80;5.72;;;33.80;91.10;;;;;;5053284;28;20033;-64
2023/06/18 11:20:17;;;;;;;6.82;5.40;;;33.90;91.20;;;;;;5052960;28;20040;-65
2023/06/18 11:22:44;;;;;;;6.82;5.63;;;33.80;91.40;;;;;;5034209;28;20053;-64
2023/06/18 11:25:11;;;;;;;6.50;5.30;;;33.80;91.50;;;;;;5053058;28;20040;-65
2023/06/18 11:27:45;;;;;;;6.35;5.70;;;33.50;90.90;;;;;;5052899;28;20040;-65
2023/06/18 11:30:13;;;;;;;6.30;5.47;;;33.00;90.80;;;;;;5034875;28;20072;-65
2023/06/18 11:32:40;;;;;;;;;;;32.70;91.60;;;;;;5053194;28;20071;-64
2023/06/18 11:35:07;;;;;;;6.32;5.70;;;32.70;92.40;;;;;;5052884;28;19921;-65
2023/06/18 11:37:33;;;;;;;6.57;5.97;;;32.60;93.10;;;;;;5035041;28;20041;-65
2023/06/18 11:39:59;;;;;;;6.70;6.15;;;32.30;91.90;;;;;;5052723;28;20502;-65
2023/06/18 11:42:26;;;;;;;9.13;5.72;;;32.10;92.30;;;;;;5052457;28;20069;-65
2023/06/18 11:44:55;;;;;;;9.40;5.85;;;32.00;92.10;;;;;;5031678;28;20029;-65
2023/06/18 11:47:22;;;;;;;8.77;5.80;;;31.90;91.70;;;;;;5047946;28;20070;-65
2023/06/18 11:49:51;;;;;;;9.70;6.28;;;31.90;92.90;;;;;;5052469;28;20067;-65
2023/06/18 11:52:18;;;;;;;7.88;6.45;;;31.80;91.90;;;;;;5052753;28;20123;-65
2023/06/18 11:54:45;;;;;;;7.45;5.88;;;31.60;93.10;;;;;;5052637;28;20033;-64
2023/06/18 11:57:13;;;;;;;6.05;5.47;;;31.50;92.90;;;;;;5051888;28;20072;-63
2023/06/18 11:59:40;;;;;;;9.43;6.00;;;31.50;93.80;;;;;;5052449;28;20114;-65
2023/06/18 12:02:17;;;;;;;7.13;5.57;;;31.50;94.40;;;;;;5052171;28;20103;-64
2023/06/18 12:04:44;;;;;;;6.38;5.78;;;31.40;93.20;;;;;;5052512;28;20403;-64
2023/06/18 12:07:21;;;;;;;8.27;6.30;;;31.30;93.20;;;;;;5053401;28;20386;-65
2023/06/18 12:09:48;;;;;;;8.15;6.18;;;31.30;92.70;;;;;;5052394;28;20267;-64
2023/06/18 12:12:32;;;;;;;6.20;5.60;;;31.40;92.60;;;;;;5052179;28;20545;-64
2023/06/18 12:15:17;;;;;;;8.50;5.93;;;31.40;92.90;;;;;;5052386;28;20076;-66
2023/06/18 12:18:04;;;;;;;7.47;5.93;;;31.30;93.00;;;;;;5052628;28;20060;-64
2023/06/18 12:20:30;;;;;;;8.23;6.07;;;31.30;93.30;;;;;;5051861;28;20072;-66
2023/06/18 12:22:56;;;;;;;6.28;5.68;;;31.30;92.60;;;;;;5070985;28;20045;-62
2023/06/18 12:25:26;;;;;;;7.53;5.90;;;31.30;92.30;;;;;;5071513;28;20036;-62
2023/06/18 12:27:54;;;;;;;7.47;5.65;;;31.30;92.50;;;;;;5060638;28;20045;-62
2023/06/18 12:30:44;;;;;;;7.15;5.97;;;31.20;92.70;;;;;;5075414;28;20059;-62
2023/06/18 12:33:12;;;;;;;6.35;5.70;;;31.30;92.80;;;;;;5067335;28;20032;-62
2023/06/18 12:35:40;;;;;;;8.20;6.00;;;31.00;92.70;;;;;;5075143;28;20040;-62